createdAt,value
2018-07-06T00:00:27.987Z,8.07
2018-07-06T00:03:14.884Z,9.00
2018-07-06T00:06:01.736Z,7.67
2018-07-06T00:08:49.040Z,7.87
2018-07-06T00:11:36.352Z,7.77
2018-07-06T00:14:23.612Z,11.37
2018-07-06T00:17:10.672Z,7.93
2018-07-06T00:19:57.801Z,8.53
2018-07-06T00:22:45.526Z,7.83
2018-07-06T00:25:32.512Z,7.93
2018-07-06T00:28:19.669Z,8.07
2018-07-06T00:31:08.118Z,7.83
2018-07-06T00:33:55.349Z,7.53
2018-07-06T00:36:42.701Z,7.43
2018-07-06T00:39:29.659Z,8.20
2018-07-06T00:42:16.725Z,9.13
2018-07-06T00:45:03.929Z,8.90
2018-07-06T00:47:51.795Z,7.83
2018-07-06T00:50:38.908Z,7.83
2018-07-06T00:53:26.159Z,8.50
2018-07-06T00:56:13.380Z,8.63
2018-07-06T00:59:00.535Z,8.70
2018-07-06T01:01:41.849Z,9.00
2018-07-06T01:04:28.804Z,8.83
2018-07-06T01:07:15.728Z,8.97
2018-07-06T01:10:02.912Z,10.10
2018-07-06T01:12:55.594Z,8.37
2018-07-06T01:15:42.716Z,7.30
2018-07-06T01:18:29.848Z,6.97
2018-07-06T01:21:17.112Z,7.83
2018-07-06T01:23:58.371Z,6.83
2018-07-06T01:26:45.456Z,7.67
2018-07-06T01:29:32.375Z,7.80
2018-07-06T01:32:19.365Z,8.63
2018-07-06T01:35:06.774Z,7.07
2018-07-06T01:37:53.922Z,7.03
2018-07-06T01:40:41.176Z,6.57
2018-07-06T01:43:28.395Z,7.00
2018-07-06T01:46:15.233Z,7.23
2018-07-06T01:49:02.544Z,8.30
2018-07-06T01:51:49.780Z,9.20
2018-07-06T01:54:36.761Z,9.10
2018-07-06T01:57:24.035Z,8.33
2018-07-06T02:00:11.230Z,7.17
2018-07-06T02:02:58.484Z,7.70
2018-07-06T02:05:46.012Z,7.03
2018-07-06T02:08:33.446Z,6.30
2018-07-06T02:11:20.623Z,6.87
2018-07-06T02:14:07.803Z,6.83
2018-07-06T02:16:55.084Z,6.80
2018-07-06T02:19:42.315Z,7.37
2018-07-06T02:22:29.512Z,7.30
2018-07-06T02:25:16.688Z,8.17
2018-07-06T02:28:03.944Z,7.93
2018-07-06T02:30:45.152Z,8.20
2018-07-06T02:33:31.900Z,7.50
2018-07-06T02:36:18.992Z,7.40
2018-07-06T02:39:06.220Z,7.50
2018-07-06T02:41:53.435Z,7.30
2018-07-06T02:44:40.277Z,7.00
2018-07-06T02:47:27.810Z,7.13
2018-07-06T02:50:15.206Z,6.33
2018-07-06T02:53:02.592Z,6.83
2018-07-06T02:55:49.868Z,6.50
2018-07-06T02:58:37.042Z,6.70
2018-07-06T03:01:24.295Z,6.20
2018-07-06T03:04:11.651Z,6.00
2018-07-06T03:06:58.866Z,5.80
2018-07-06T03:09:46.031Z,6.57
2018-07-06T03:12:33.173Z,6.33
2018-07-06T03:15:20.422Z,8.57
2018-07-06T03:18:07.771Z,8.03
2018-07-06T03:20:54.931Z,6.73
2018-07-06T03:23:42.156Z,8.53
2018-07-06T03:26:29.211Z,8.27
2018-07-06T03:29:16.835Z,8.87
2018-07-06T03:32:03.895Z,7.90
2018-07-06T03:34:52.364Z,9.53
2018-07-06T03:37:39.600Z,9.83
2018-07-06T03:40:26.439Z,8.63
2018-07-06T03:43:13.453Z,9.17
2018-07-06T03:46:00.846Z,9.93
2018-07-06T03:48:47.764Z,11.30
2018-07-06T03:51:34.669Z,9.37
2018-07-06T03:54:21.661Z,8.60
2018-07-06T03:57:08.837Z,8.97
2018-07-06T03:59:56.091Z,9.17
2018-07-06T04:02:43.272Z,10.90
2018-07-06T04:05:30.769Z,10.93
2018-07-06T04:08:17.840Z,11.90
2018-07-06T04:11:04.988Z,10.87
2018-07-06T04:13:52.473Z,10.80
2018-07-06T04:16:39.550Z,10.70
2018-07-06T04:19:26.668Z,12.03
2018-07-06T04:22:13.807Z,9.90
2018-07-06T04:25:00.988Z,11.40
2018-07-06T04:27:48.312Z,11.00
2018-07-06T04:30:35.473Z,9.80
2018-07-06T04:33:22.733Z,10.17
2018-07-06T04:36:09.904Z,11.17
2018-07-06T04:38:57.201Z,10.87
2018-07-06T04:41:44.624Z,10.43
2018-07-06T04:44:31.615Z,11.00
2018-07-06T04:47:18.428Z,9.40
2018-07-06T04:50:05.384Z,7.17
2018-07-06T04:52:52.688Z,8.57
2018-07-06T04:55:39.884Z,10.80
2018-07-06T04:58:26.836Z,11.73
2018-07-06T05:01:14.191Z,11.33
2018-07-06T05:03:55.295Z,11.77
2018-07-06T05:06:42.247Z,11.43
2018-07-06T05:09:29.476Z,11.03
2018-07-06T05:12:16.797Z,13.20
2018-07-06T05:15:03.905Z,11.70
2018-07-06T05:17:50.862Z,11.60
2018-07-06T05:20:39.161Z,10.37
2018-07-06T05:23:26.428Z,10.90
2018-07-06T05:26:13.804Z,12.27
2018-07-06T05:29:00.984Z,11.97
2018-07-06T05:31:48.119Z,13.77
2018-07-06T05:34:29.172Z,13.97
2018-07-06T05:37:16.281Z,11.63
2018-07-06T05:40:03.511Z,11.53
2018-07-06T05:42:50.849Z,12.15
2018-07-06T05:45:38.109Z,12.00
2018-07-06T05:48:25.103Z,12.13
2018-07-06T05:51:12.009Z,10.85
2018-07-06T05:53:58.917Z,11.40
2018-07-06T05:56:46.220Z,15.35
2018-07-06T05:59:33.331Z,12.18
2018-07-06T06:02:20.464Z,11.90
2018-07-06T06:05:08.042Z,17.32
2018-07-06T06:07:36.463Z,11.78
2018-07-06T06:10:06.444Z,11.08
2018-07-06T06:12:36.416Z,11.50
2018-07-06T06:15:06.392Z,12.45
2018-07-06T06:17:36.419Z,12.35
2018-07-06T06:20:11.166Z,12.00
2018-07-06T06:22:40.900Z,12.10
2018-07-06T06:25:10.896Z,12.45
2018-07-06T06:27:40.879Z,12.37
2018-07-06T06:30:10.852Z,12.95
2018-07-06T06:32:40.827Z,11.73
2018-07-06T06:35:10.879Z,13.15
2018-07-06T06:37:41.236Z,12.80
2018-07-06T06:40:11.299Z,11.85
2018-07-06T06:42:41.285Z,12.80
2018-07-06T06:45:11.254Z,12.45
2018-07-06T06:47:41.243Z,11.30
2018-07-06T06:50:11.219Z,13.98
2018-07-06T06:52:41.191Z,13.05
2018-07-06T06:55:11.204Z,15.00
2018-07-06T06:57:41.188Z,13.20
2018-07-06T07:00:11.149Z,12.30
2018-07-06T07:02:40.968Z,13.30
2018-07-06T07:05:10.809Z,13.10
2018-07-06T07:07:40.791Z,14.73
2018-07-06T07:10:10.857Z,14.58
2018-07-06T07:12:40.869Z,14.30
2018-07-06T07:15:10.832Z,10.75
2018-07-06T07:17:40.832Z,11.57
2018-07-06T07:20:10.891Z,10.65
2018-07-06T07:22:40.915Z,12.03
2018-07-06T07:25:10.869Z,12.50
2018-07-06T07:27:40.600Z,9.43
2018-07-06T07:30:11.431Z,10.88
2018-07-06T07:32:41.356Z,12.88
2018-07-06T07:35:11.332Z,10.55
2018-07-06T07:37:41.307Z,12.03
2018-07-06T07:40:11.287Z,11.97
2018-07-06T07:42:41.344Z,12.28
2018-07-06T07:45:11.424Z,12.53
2018-07-06T07:47:41.405Z,11.68
2018-07-06T07:50:11.380Z,14.30
2018-07-06T07:54:56.242Z,14.18
2018-07-06T07:57:26.217Z,13.20
2018-07-06T07:59:56.684Z,12.13
2018-07-06T08:02:27.848Z,14.85
2018-07-06T08:04:57.832Z,12.13
2018-07-06T08:07:27.817Z,13.78
2018-07-06T08:09:58.094Z,13.32
2018-07-06T08:12:28.480Z,11.05
2018-07-06T08:14:58.475Z,9.03
2018-07-06T08:17:28.551Z,7.78
2018-07-06T08:19:58.536Z,11.60
2018-07-06T08:22:28.875Z,7.65
2018-07-06T08:24:58.843Z,9.03
2018-07-06T08:27:28.800Z,9.33
2018-07-06T08:29:58.768Z,11.08
2018-07-06T08:32:29.064Z,10.20
2018-07-06T08:35:15.913Z,8.20
2018-07-06T08:37:59.263Z,6.83
2018-07-06T08:40:29.728Z,6.03
2018-07-06T08:43:00.676Z,5.35
2018-07-06T08:45:31.204Z,5.12
2018-07-06T08:48:01.190Z,5.90
2018-07-06T08:50:31.141Z,6.33
2018-07-06T08:53:01.155Z,4.90
2018-07-06T08:55:31.093Z,5.22
2018-07-06T08:58:01.068Z,5.53
2018-07-06T09:00:31.054Z,5.87
2018-07-06T09:03:01.020Z,4.22
2018-07-06T09:05:31.099Z,5.03
2018-07-06T09:08:01.067Z,5.95
2018-07-06T09:10:31.128Z,4.45
2018-07-06T09:13:01.232Z,6.40
2018-07-06T09:15:31.181Z,5.65
2018-07-06T09:18:01.277Z,5.92
2018-07-06T09:20:31.280Z,3.83
2018-07-06T09:23:01.256Z,3.58
2018-07-06T09:25:31.352Z,6.08
2018-07-06T09:28:01.208Z,4.03
2018-07-06T09:30:32.496Z,4.10
2018-07-06T09:33:02.588Z,3.22
2018-07-06T09:35:32.553Z,3.12
2018-07-06T09:38:02.524Z,3.45
2018-07-06T09:40:32.504Z,3.10
2018-07-06T09:43:02.516Z,3.00
2018-07-06T09:45:32.487Z,3.33
2018-07-06T09:48:02.455Z,4.62
2018-07-06T09:50:32.416Z,3.70
2018-07-06T09:53:02.386Z,3.27
2018-07-06T09:55:32.364Z,5.50
2018-07-06T09:58:02.409Z,2.92
2018-07-06T10:00:38.024Z,3.08
2018-07-06T10:03:08.116Z,2.92
2018-07-06T10:05:38.126Z,5.03
2018-07-06T10:08:08.077Z,6.17
2018-07-06T10:10:39.127Z,3.12
2018-07-06T10:13:09.697Z,3.10
2018-07-06T10:15:40.391Z,2.90
2018-07-06T10:18:11.129Z,2.90
2018-07-06T10:20:41.108Z,4.55
2018-07-06T10:23:11.080Z,3.37
2018-07-06T10:25:41.104Z,3.12
2018-07-06T10:29:25.367Z,4.53
2018-07-06T10:32:31.256Z,4.53
2018-07-06T10:35:01.348Z,4.60
2018-07-06T10:37:31.484Z,3.37
2018-07-06T10:40:01.564Z,6.30
2018-07-06T10:42:32.036Z,4.70
2018-07-06T10:45:02.042Z,4.65
2018-07-06T10:47:31.996Z,4.65
2018-07-06T10:50:01.967Z,4.17
2018-07-06T10:52:32.456Z,3.15
2018-07-06T10:55:02.419Z,4.22
2018-07-06T10:57:32.413Z,3.85
2018-07-06T11:00:02.368Z,4.45
2018-07-06T11:02:32.866Z,3.20
2018-07-06T11:05:02.904Z,3.45
2018-07-06T11:07:32.874Z,7.85
2018-07-06T11:10:02.931Z,4.15
2018-07-06T11:12:33.032Z,4.90
2018-07-06T11:15:02.994Z,4.87
2018-07-06T11:17:32.968Z,3.90
2018-07-06T11:20:03.087Z,5.03
2018-07-06T11:22:33.417Z,3.70
2018-07-06T11:25:03.433Z,3.50
2018-07-06T11:27:33.448Z,4.50
2018-07-06T11:30:03.452Z,5.97
2018-07-06T11:32:33.643Z,8.78
2018-07-06T11:35:03.682Z,3.87
2018-07-06T11:37:33.704Z,3.42
2018-07-06T11:40:03.646Z,3.77
2018-07-06T11:42:33.834Z,4.35
2018-07-06T11:45:03.956Z,5.28
2018-07-06T11:47:33.671Z,3.80
2018-07-06T11:50:03.545Z,5.22
2018-07-06T11:52:33.726Z,3.40
2018-07-06T11:55:03.748Z,3.58
2018-07-06T11:57:33.752Z,3.50
2018-07-06T12:00:03.977Z,4.00
2018-07-06T12:02:34.069Z,3.80
2018-07-06T12:05:04.080Z,5.80
2018-07-06T12:07:34.051Z,3.90
2018-07-06T12:10:04.000Z,3.35
2018-07-06T12:12:34.296Z,3.62
2018-07-06T12:15:04.322Z,2.47
2018-07-06T12:17:34.464Z,4.37
2018-07-06T12:20:04.535Z,2.67
2018-07-06T12:22:34.609Z,2.85
2018-07-06T12:25:04.804Z,2.30
2018-07-06T12:27:34.792Z,2.30
2018-07-06T12:30:05.064Z,2.85
2018-07-06T12:32:35.116Z,5.10
2018-07-06T12:35:05.120Z,4.60
2018-07-06T12:37:35.168Z,2.62
2018-07-06T12:40:05.134Z,3.72
2018-07-06T12:42:35.101Z,2.33
2018-07-06T12:45:05.096Z,4.53
2018-07-06T12:47:35.068Z,3.40
2018-07-06T12:50:05.524Z,2.08
2018-07-06T12:52:36.039Z,5.25
2018-07-06T12:55:06.158Z,2.20
2018-07-06T12:57:36.129Z,2.77
2018-07-06T13:00:06.228Z,3.33
2018-07-06T13:02:36.700Z,2.30
2018-07-06T13:05:07.042Z,4.25
2018-07-06T13:07:37.496Z,2.70
2018-07-06T13:10:08.366Z,6.67
2018-07-06T13:12:38.368Z,2.80
2018-07-06T13:15:08.333Z,2.75
2018-07-06T13:17:38.312Z,4.03
2018-07-06T13:20:08.292Z,2.42
2018-07-06T13:22:38.264Z,2.80
2018-07-06T13:25:08.248Z,3.02
2018-07-06T13:27:38.301Z,2.72
2018-07-06T13:30:08.432Z,29.92
2018-07-06T13:32:38.476Z,7.72
2018-07-06T13:35:09.181Z,2.90
2018-07-06T13:37:39.488Z,3.55
2018-07-06T13:40:09.739Z,2.45
2018-07-06T13:42:39.969Z,4.78
2018-07-06T13:45:10.642Z,7.62
2018-07-06T13:47:40.629Z,2.47
2018-07-06T13:50:10.600Z,2.98
2018-07-06T13:52:41.071Z,2.67
2018-07-06T13:55:11.048Z,5.80
2018-07-06T13:57:41.204Z,3.37
2018-07-06T14:00:11.180Z,2.12
2018-07-06T14:02:41.143Z,7.08
2018-07-06T14:05:11.100Z,2.30
2018-07-06T14:07:41.064Z,6.03
2018-07-06T14:10:10.775Z,3.45
2018-07-06T14:12:40.633Z,2.98
2018-07-06T14:15:11.087Z,2.20
2018-07-06T14:17:41.076Z,2.25
2018-07-06T14:20:11.044Z,7.00
2018-07-06T14:22:41.043Z,4.42
2018-07-06T14:25:10.799Z,5.25
2018-07-06T14:27:40.657Z,6.60
2018-07-06T14:30:10.645Z,6.40
2018-07-06T14:32:41.080Z,3.15
2018-07-06T14:35:11.062Z,3.00
2018-07-06T14:37:41.029Z,5.33
2018-07-06T14:40:10.988Z,5.80
2018-07-06T14:42:41.071Z,2.75
2018-07-06T14:45:11.159Z,3.17
2018-07-06T14:47:41.135Z,3.42
2018-07-06T14:50:11.080Z,3.17
2018-07-06T14:52:41.083Z,3.95
2018-07-06T14:55:11.088Z,3.10
2018-07-06T14:57:41.053Z,5.17
2018-07-06T15:00:11.016Z,2.98
2018-07-06T15:02:41.128Z,4.22
2018-07-06T15:05:11.096Z,5.92
2018-07-06T15:07:41.156Z,3.17
2018-07-06T15:10:11.597Z,3.40
2018-07-06T15:12:41.610Z,4.00
2018-07-06T15:15:11.520Z,4.50
2018-07-06T15:17:41.482Z,5.25
2018-07-06T15:20:11.436Z,4.67
2018-07-06T15:22:41.391Z,8.03
2018-07-06T15:25:11.490Z,4.00
2018-07-06T15:27:48.128Z,6.03
2018-07-06T15:30:18.077Z,3.65
2018-07-06T15:32:48.042Z,5.65
2018-07-06T15:35:17.992Z,4.35
2018-07-06T15:37:48.100Z,5.05
2018-07-06T15:40:18.088Z,5.15
2018-07-06T15:42:48.076Z,5.65
2018-07-06T15:45:18.041Z,5.15
2018-07-06T15:47:48.028Z,4.72
2018-07-06T15:50:18.100Z,4.83
2018-07-06T15:52:48.069Z,5.58
2018-07-06T15:55:18.041Z,4.95
2018-07-06T15:57:54.584Z,6.75
2018-07-06T16:00:24.544Z,7.28
2018-07-06T16:02:54.504Z,7.08
2018-07-06T16:05:24.648Z,4.65
2018-07-06T16:07:54.604Z,4.10
2018-07-06T16:10:24.669Z,4.90
2018-07-06T16:12:54.700Z,4.12
2018-07-06T16:15:24.775Z,4.33
2018-07-06T16:17:54.743Z,5.17
2018-07-06T16:20:24.752Z,7.17
2018-07-06T16:22:54.866Z,5.85
2018-07-06T16:25:24.850Z,9.83
2018-07-06T16:27:54.858Z,7.17
2018-07-06T16:30:25.004Z,5.65
2018-07-06T16:32:55.044Z,7.35
2018-07-06T16:35:25.020Z,5.28
2018-07-06T16:37:54.737Z,7.80
2018-07-06T16:40:24.860Z,5.28
2018-07-06T16:42:54.883Z,5.47
2018-07-06T16:45:24.884Z,7.53
2018-07-06T16:47:54.644Z,4.50
2018-07-06T16:50:24.577Z,8.40
2018-07-06T16:52:54.552Z,6.60
2018-07-06T16:55:24.520Z,8.43
2018-07-06T16:57:54.555Z,6.60
2018-07-06T17:00:24.516Z,6.42
2018-07-06T17:02:54.471Z,6.58
2018-07-06T17:05:24.468Z,5.55
2018-07-06T17:07:54.541Z,6.53
2018-07-06T17:10:24.533Z,6.35
2018-07-06T17:12:54.504Z,7.15
2018-07-06T17:15:24.480Z,4.40
2018-07-06T17:17:54.451Z,5.92
2018-07-06T17:20:24.447Z,6.25
2018-07-06T17:22:54.523Z,3.80
2018-07-06T17:25:24.331Z,4.35
2018-07-06T17:27:54.200Z,4.65
2018-07-06T17:30:24.299Z,6.15
2018-07-06T17:32:54.298Z,5.67
2018-07-06T17:35:24.241Z,5.78
2018-07-06T17:37:54.569Z,5.90
2018-07-06T17:40:24.544Z,6.45
2018-07-06T17:42:54.515Z,5.62
2018-07-06T17:45:24.493Z,6.35
2018-07-06T17:47:54.500Z,6.92
2018-07-06T17:50:24.488Z,7.35
2018-07-06T17:52:54.823Z,7.20
2018-07-06T17:55:24.795Z,4.17
2018-07-06T17:57:54.766Z,4.37
2018-07-06T18:00:24.765Z,5.20
2018-07-06T18:02:54.719Z,5.95
2018-07-06T18:05:24.792Z,6.92
2018-07-06T18:07:54.759Z,8.13
2018-07-06T18:10:24.824Z,8.53
2018-07-06T18:12:55.120Z,4.37
2018-07-06T18:15:25.113Z,7.20
2018-07-06T18:17:55.100Z,4.78
2018-07-06T18:20:25.308Z,4.67
2018-07-06T18:22:55.411Z,6.50
2018-07-06T18:25:25.401Z,5.62
2018-07-06T18:27:55.443Z,6.72
2018-07-06T18:30:25.428Z,5.60
2018-07-06T18:32:55.439Z,9.53
2018-07-06T18:35:25.491Z,4.75
2018-07-06T18:37:55.456Z,9.35
2018-07-06T18:40:25.432Z,6.78
2018-07-06T18:42:55.396Z,4.33
2018-07-06T18:45:25.469Z,6.33
2018-07-06T18:47:55.439Z,3.98
2018-07-06T18:50:25.656Z,6.22
2018-07-06T18:52:55.661Z,5.03
2018-07-06T18:55:25.647Z,7.17
2018-07-06T18:57:55.624Z,5.05
2018-07-06T19:00:25.667Z,9.05
2018-07-06T19:02:55.580Z,5.22
2018-07-06T19:05:25.572Z,5.35
2018-07-06T19:07:56.007Z,5.37
2018-07-06T19:10:26.140Z,5.28
2018-07-06T19:12:56.096Z,5.95
2018-07-06T19:15:26.240Z,5.40
2018-07-06T19:17:56.208Z,4.10
2018-07-06T19:20:26.228Z,4.72
2018-07-06T19:22:56.292Z,4.10
2018-07-06T19:25:26.264Z,7.25
2018-07-06T19:27:56.290Z,4.60
2018-07-06T19:30:26.371Z,4.17
2018-07-06T19:32:56.471Z,4.22
2018-07-06T19:35:26.476Z,4.53
2018-07-06T19:37:56.439Z,5.47
2018-07-06T19:40:26.548Z,9.10
2018-07-06T19:42:56.519Z,4.90
2018-07-06T19:45:26.571Z,5.97
2018-07-06T19:47:56.545Z,5.17
2018-07-06T19:50:26.573Z,4.77
2018-07-06T19:52:56.535Z,4.70
2018-07-06T19:55:26.523Z,5.87
2018-07-06T19:57:56.626Z,5.37
2018-07-06T20:00:26.816Z,5.80
2018-07-06T20:02:56.862Z,5.80
2018-07-06T20:05:26.798Z,4.77
2018-07-06T20:07:56.768Z,6.00
2018-07-06T20:10:26.819Z,7.93
2018-07-06T20:12:56.852Z,4.57
2018-07-06T20:15:26.906Z,4.40
2018-07-06T20:17:56.924Z,6.17
2018-07-06T20:20:26.921Z,4.83
2018-07-06T20:22:56.914Z,6.43
2018-07-06T20:25:26.868Z,5.00
2018-07-06T20:27:56.838Z,4.87
2018-07-06T20:30:26.851Z,4.83
2018-07-06T20:32:56.823Z,6.40
2018-07-06T20:35:26.800Z,5.90
2018-07-06T20:37:56.774Z,5.77
2018-07-06T20:40:26.935Z,6.17
2018-07-06T20:42:57.039Z,8.30
2018-07-06T20:45:26.996Z,7.90
2018-07-06T20:47:56.982Z,6.60
2018-07-06T20:50:26.951Z,6.20
2018-07-06T20:52:56.916Z,5.77
2018-07-06T20:55:26.889Z,5.87
2018-07-06T20:57:56.862Z,8.97
2018-07-06T21:00:27.185Z,7.60
2018-07-06T21:02:57.720Z,5.40
2018-07-06T21:05:27.661Z,5.80
2018-07-06T21:07:57.672Z,6.37
2018-07-06T21:10:27.725Z,7.00
2018-07-06T21:12:57.667Z,6.40
2018-07-06T21:15:27.656Z,5.73
2018-07-06T21:17:57.642Z,5.57
2018-07-06T21:20:27.647Z,9.30
2018-07-06T21:22:57.608Z,6.50
2018-07-06T21:25:27.559Z,6.20
2018-07-06T21:27:57.532Z,8.07
2018-07-06T21:30:27.505Z,7.83
2018-07-06T21:32:57.476Z,6.20
2018-07-06T21:35:27.424Z,9.50
2018-07-06T21:37:57.392Z,9.23
2018-07-06T21:40:27.384Z,6.70
2018-07-06T21:42:57.352Z,8.10
2018-07-06T21:45:27.304Z,8.70
2018-07-06T21:47:57.408Z,9.53
2018-07-06T21:50:27.476Z,6.83
2018-07-06T21:52:57.444Z,7.20
2018-07-06T21:55:27.462Z,9.90
2018-07-06T21:57:57.389Z,7.30
2018-07-06T22:00:35.683Z,10.00
2018-07-06T22:03:05.984Z,7.93
2018-07-06T22:05:36.085Z,8.50
2018-07-06T22:08:06.918Z,7.60
2018-07-06T22:10:39.233Z,8.67
2018-07-06T22:13:09.809Z,8.27
2018-07-06T22:15:43.988Z,9.03
2018-07-06T22:18:15.448Z,8.57
2018-07-06T22:20:46.251Z,8.37
2018-07-06T22:23:16.642Z,9.10
2018-07-06T22:25:46.706Z,8.23
2018-07-06T22:28:16.668Z,9.63
2018-07-06T22:30:46.625Z,9.10
2018-07-06T22:33:16.606Z,8.70
2018-07-06T22:35:46.564Z,10.77
2018-07-06T22:38:16.544Z,10.30
2018-07-06T22:40:46.512Z,9.57
2018-07-06T22:43:16.552Z,9.27
2018-07-06T22:45:46.725Z,8.97
2018-07-06T22:48:16.691Z,9.23
2018-07-06T22:50:46.640Z,9.23
2018-07-06T22:53:16.600Z,10.40
2018-07-06T22:55:46.557Z,10.07
2018-07-06T22:58:16.533Z,9.40
2018-07-06T23:00:46.497Z,9.23
2018-07-06T23:03:16.480Z,10.00
2018-07-06T23:05:46.448Z,9.83
2018-07-06T23:08:16.420Z,9.87
2018-07-06T23:10:46.392Z,9.83
2018-07-06T23:13:16.278Z,9.70
2018-07-06T23:15:46.119Z,12.60
2018-07-06T23:18:16.198Z,10.97
2018-07-06T23:20:46.263Z,10.20
2018-07-06T23:23:17.055Z,10.23
2018-07-06T23:25:48.119Z,11.80
2018-07-06T23:28:18.332Z,12.30
2018-07-06T23:30:48.303Z,9.63
2018-07-06T23:33:18.273Z,11.10
2018-07-06T23:35:48.251Z,10.90
2018-07-06T23:38:18.311Z,11.80
2018-07-06T23:40:48.241Z,10.53
2018-07-06T23:43:18.208Z,12.13
2018-07-06T23:45:48.192Z,10.33
2018-07-06T23:48:18.160Z,11.97
2018-07-06T23:50:48.147Z,14.13
2018-07-06T23:53:18.108Z,12.67
2018-07-06T23:55:48.097Z,11.30
2018-07-06T23:58:24.872Z,10.70
